Main page
METAR-TAF:

METAR-TAF

Airports :

Searle Field

Ogallala, Nebraska, United States

latitude: 41-07-11N, longitude: 101-46-08W, elevation: 3277 ft

Current weather observation

The report was made 33 minutes ago, at 22:15 UTC
Wind 10 mph from the North with gusts up to 17 mph, varying between Northwest and North/Northeast
Temperature 99°F
Humidity 22%
Pressure 29.88 in. Hg
Visibility: 10 miles
Clear sky

METAR: KOGA 252215Z AUTO 35009G15KT 320V020 10SM CLR 37/12 A2988 RMK AO2 T03670124

Time: 16:48 (22:48 UTC)


TAF: missing

Weather observations and forecasts of more than 4000 airports (METAR and TAF reports).

The available stations are represented by yellow and red dots on the map.

Hover mouse over dot to see the name of the station.

Then click to see weather observations and forecasts.

To change the map : click on the green buttons with a black cross to zoom in, on the green button with a dash to zoom out, or on the green arrows for adjacent maps.


METAR-TAF: